Terminal Aerodrome Forecast
Issued by NWS

Home | Current Version | Previous Version | Text Only | Print | Product List | Glossary On
Versions: 1 2 3 4 5 6 7 8 9 10 11 12 13 14 15 16 17
710
FTUS43 KAPX 191737
TAFAPN
TAF
KAPN 191737Z 1918/2018 31011G20KT P6SM VCSH OVC035
     FM192300 28009KT P6SM VCSH BKN040
     FM200900 25006KT P6SM BKN035
     FM201400 22005KT P6SM SCT040 BKN120=

USA.gov is the U.S. government's official web portal to all federal, state and local government web resources and services.